sensor_id;sensor_type;location;lat;lon;timestamp;temperature;humidity
78054;DHT22;67726;45.636;11.752;2023-11-21T00:00:49;8.70;99.90
78054;DHT22;67726;45.636;11.752;2023-11-21T00:03:14;8.80;99.90
78054;DHT22;67726;45.636;11.752;2023-11-21T00:05:43;8.80;99.90
78054;DHT22;67726;45.636;11.752;2023-11-21T00:08:09;8.70;99.90
78054;DHT22;67726;45.636;11.752;2023-11-21T00:10:35;8.70;99.90
78054;DHT22;67726;45.636;11.752;2023-11-21T00:13:00;8.80;99.90
78054;DHT22;67726;45.636;11.752;2023-11-21T00:15:28;8.70;99.90
78054;DHT22;67726;45.636;11.752;2023-11-21T00:17:53;8.80;99.90
78054;DHT22;67726;45.636;11.752;2023-11-21T00:20:19;8.70;99.90
78054;DHT22;67726;45.636;11.752;2023-11-21T00:22:45;8.80;99.90
78054;DHT22;67726;45.636;11.752;2023-11-21T00:25:12;8.80;99.90
78054;DHT22;67726;45.636;11.752;2023-11-21T00:27:40;8.70;99.90
78054;DHT22;67726;45.636;11.752;2023-11-21T00:30:07;8.90;99.90
78054;DHT22;67726;45.636;11.752;2023-11-21T00:32:35;8.80;99.90
78054;DHT22;67726;45.636;11.752;2023-11-21T00:35:01;8.80;99.90
78054;DHT22;67726;45.636;11.752;2023-11-21T00:37:26;8.90;99.90
78054;DHT22;67726;45.636;11.752;2023-11-21T00:39:52;8.80;99.90
78054;DHT22;67726;45.636;11.752;2023-11-21T00:42:18;8.90;99.90
78054;DHT22;67726;45.636;11.752;2023-11-21T00:44:44;8.90;99.90
78054;DHT22;67726;45.636;11.752;2023-11-21T00:47:10;8.90;99.90
78054;DHT22;67726;45.636;11.752;2023-11-21T00:49:35;8.90;98.80
78054;DHT22;67726;45.636;11.752;2023-11-21T00:52:01;9.10;97.80
78054;DHT22;67726;45.636;11.752;2023-11-21T00:54:28;9.10;97.80
78054;DHT22;67726;45.636;11.752;2023-11-21T00:56:54;9.20;99.00
78054;DHT22;67726;45.636;11.752;2023-11-21T00:59:19;9.20;98.50
78054;DHT22;67726;45.636;11.752;2023-11-21T01:01:45;9.20;98.60
78054;DHT22;67726;45.636;11.752;2023-11-21T01:04:11;9.10;97.80
78054;DHT22;67726;45.636;11.752;2023-11-21T01:06:36;9.20;98.50
78054;DHT22;67726;45.636;11.752;2023-11-21T01:09:02;9.20;99.10
78054;DHT22;67726;45.636;11.752;2023-11-21T01:11:36;9.20;99.50
78054;DHT22;67726;45.636;11.752;2023-11-21T01:14:04;9.20;98.50
78054;DHT22;67726;45.636;11.752;2023-11-21T01:16:30;9.20;99.10
78054;DHT22;67726;45.636;11.752;2023-11-21T01:18:58;9.20;99.50
78054;DHT22;67726;45.636;11.752;2023-11-21T01:21:25;9.10;99.40
78054;DHT22;67726;45.636;11.752;2023-11-21T01:23:50;9.10;98.40
78054;DHT22;67726;45.636;11.752;2023-11-21T01:26:16;9.00;99.00
78054;DHT22;67726;45.636;11.752;2023-11-21T01:28:41;9.10;99.20
78054;DHT22;67726;45.636;11.752;2023-11-21T01:31:07;9.00;98.90
78054;DHT22;67726;45.636;11.752;2023-11-21T01:33:33;9.00;99.10
78054;DHT22;67726;45.636;11.752;2023-11-21T01:35:58;9.00;99.30
78054;DHT22;67726;45.636;11.752;2023-11-21T01:38:25;8.90;99.60
78054;DHT22;67726;45.636;11.752;2023-11-21T01:40:51;9.00;99.90
78054;DHT22;67726;45.636;11.752;2023-11-21T01:43:17;8.80;99.90
78054;DHT22;67726;45.636;11.752;2023-11-21T01:45:42;9.00;99.90
78054;DHT22;67726;45.636;11.752;2023-11-21T01:48:10;8.80;99.90
78054;DHT22;67726;45.636;11.752;2023-11-21T01:50:36;8.90;99.90
78054;DHT22;67726;45.636;11.752;2023-11-21T01:53:02;8.90;99.90
78054;DHT22;67726;45.636;11.752;2023-11-21T01:55:29;9.00;99.90
78054;DHT22;67726;45.636;11.752;2023-11-21T01:57:58;8.90;99.90
78054;DHT22;67726;45.636;11.752;2023-11-21T02:00:24;9.00;99.90
78054;DHT22;67726;45.636;11.752;2023-11-21T02:02:51;8.90;99.90
78054;DHT22;67726;45.636;11.752;2023-11-21T02:05:18;8.90;99.90
78054;DHT22;67726;45.636;11.752;2023-11-21T02:07:44;9.00;99.90
78054;DHT22;67726;45.636;11.752;2023-11-21T02:10:10;8.80;99.10
78054;DHT22;67726;45.636;11.752;2023-11-21T02:12:43;8.90;99.70
78054;DHT22;67726;45.636;11.752;2023-11-21T02:15:13;8.80;99.90
78054;DHT22;67726;45.636;11.752;2023-11-21T02:17:52;8.80;99.90
78054;DHT22;67726;45.636;11.752;2023-11-21T02:20:20;8.80;99.30
78054;DHT22;67726;45.636;11.752;2023-11-21T02:22:53;8.70;98.80
78054;DHT22;67726;45.636;11.752;2023-11-21T02:25:30;8.70;99.00
78054;DHT22;67726;45.636;11.752;2023-11-21T02:28:00;8.70;99.40
78054;DHT22;67726;45.636;11.752;2023-11-21T02:30:27;8.70;99.40
78054;DHT22;67726;45.636;11.752;2023-11-21T02:32:54;8.60;99.80
78054;DHT22;67726;45.636;11.752;2023-11-21T02:35:20;8.80;99.90
78054;DHT22;67726;45.636;11.752;2023-11-21T02:37:47;8.60;99.60
78054;DHT22;67726;45.636;11.752;2023-11-21T02:40:13;8.70;99.60
78054;DHT22;67726;45.636;11.752;2023-11-21T02:42:46;8.70;99.80
78054;DHT22;67726;45.636;11.752;2023-11-21T02:45:13;8.70;99.90
78054;DHT22;67726;45.636;11.752;2023-11-21T02:47:42;8.70;99.90
78054;DHT22;67726;45.636;11.752;2023-11-21T02:50:08;8.50;99.90
78054;DHT22;67726;45.636;11.752;2023-11-21T02:52:35;8.60;99.90
78054;DHT22;67726;45.636;11.752;2023-11-21T02:55:01;8.60;99.90
78054;DHT22;67726;45.636;11.752;2023-11-21T02:57:27;8.60;99.90
78054;DHT22;67726;45.636;11.752;2023-11-21T02:59:53;8.60;99.90
78054;DHT22;67726;45.636;11.752;2023-11-21T03:02:18;8.40;99.90
78054;DHT22;67726;45.636;11.752;2023-11-21T03:04:44;8.70;99.90
78054;DHT22;67726;45.636;11.752;2023-11-21T03:07:10;8.50;99.90
78054;DHT22;67726;45.636;11.752;2023-11-21T03:09:36;8.50;99.90
78054;DHT22;67726;45.636;11.752;2023-11-21T03:12:01;8.50;99.90
78054;DHT22;67726;45.636;11.752;2023-11-21T03:14:27;8.50;99.90
78054;DHT22;67726;45.636;11.752;2023-11-21T03:16:53;8.50;99.90
78054;DHT22;67726;45.636;11.752;2023-11-21T03:19:18;8.30;99.90
78054;DHT22;67726;45.636;11.752;2023-11-21T03:21:44;8.50;99.90
78054;DHT22;67726;45.636;11.752;2023-11-21T03:24:10;8.40;99.90
78054;DHT22;67726;45.636;11.752;2023-11-21T03:26:36;8.40;99.90
78054;DHT22;67726;45.636;11.752;2023-11-21T03:29:02;8.30;99.90
78054;DHT22;67726;45.636;11.752;2023-11-21T03:31:28;8.40;99.90
78054;DHT22;67726;45.636;11.752;2023-11-21T03:33:54;8.30;99.90
78054;DHT22;67726;45.636;11.752;2023-11-21T03:36:20;8.30;99.90
78054;DHT22;67726;45.636;11.752;2023-11-21T03:38:48;8.20;99.90
78054;DHT22;67726;45.636;11.752;2023-11-21T03:41:13;8.20;99.90
78054;DHT22;67726;45.636;11.752;2023-11-21T03:43:40;8.20;99.90
78054;DHT22;67726;45.636;11.752;2023-11-21T03:46:06;8.20;99.90
78054;DHT22;67726;45.636;11.752;2023-11-21T03:48:32;8.20;99.90
78054;DHT22;67726;45.636;11.752;2023-11-21T03:50:58;8.20;99.90
78054;DHT22;67726;45.636;11.752;2023-11-21T03:53:24;8.20;99.90
78054;DHT22;67726;45.636;11.752;2023-11-21T03:55:49;8.20;99.90
78054;DHT22;67726;45.636;11.752;2023-11-21T03:58:15;8.20;99.90
78054;DHT22;67726;45.636;11.752;2023-11-21T04:00:41;8.20;99.90
78054;DHT22;67726;45.636;11.752;2023-11-21T04:03:07;8.20;99.90
78054;DHT22;67726;45.636;11.752;2023-11-21T04:05:32;8.20;99.90
78054;DHT22;67726;45.636;11.752;2023-11-21T04:07:58;8.10;99.90
78054;DHT22;67726;45.636;11.752;2023-11-21T04:10:24;8.10;99.90
78054;DHT22;67726;45.636;11.752;2023-11-21T04:12:49;8.10;99.90
78054;DHT22;67726;45.636;11.752;2023-11-21T04:15:15;8.20;99.90
78054;DHT22;67726;45.636;11.752;2023-11-21T04:17:41;8.10;99.90
78054;DHT22;67726;45.636;11.752;2023-11-21T04:20:08;8.00;99.90
78054;DHT22;67726;45.636;11.752;2023-11-21T04:22:39;8.10;99.90
78054;DHT22;67726;45.636;11.752;2023-11-21T04:25:14;8.10;99.90
78054;DHT22;67726;45.636;11.752;2023-11-21T04:27:41;8.00;99.90
78054;DHT22;67726;45.636;11.752;2023-11-21T04:30:12;7.90;99.90
78054;DHT22;67726;45.636;11.752;2023-11-21T04:32:38;8.10;99.90
78054;DHT22;67726;45.636;11.752;2023-11-21T04:35:07;7.90;99.90
78054;DHT22;67726;45.636;11.752;2023-11-21T04:37:34;7.90;99.90
78054;DHT22;67726;45.636;11.752;2023-11-21T04:39:59;7.80;99.90
78054;DHT22;67726;45.636;11.752;2023-11-21T04:42:26;7.60;99.90
78054;DHT22;67726;45.636;11.752;2023-11-21T04:44:51;7.50;99.90
78054;DHT22;67726;45.636;11.752;2023-11-21T04:47:18;7.70;99.90
78054;DHT22;67726;45.636;11.752;2023-11-21T04:49:46;7.70;99.90
78054;DHT22;67726;45.636;11.752;2023-11-21T04:52:15;7.60;99.90
78054;DHT22;67726;45.636;11.752;2023-11-21T04:54:40;7.60;99.90
78054;DHT22;67726;45.636;11.752;2023-11-21T04:57:06;7.60;99.90
78054;DHT22;67726;45.636;11.752;2023-11-21T04:59:33;7.50;99.90
78054;DHT22;67726;45.636;11.752;2023-11-21T05:01:59;7.40;99.90
78054;DHT22;67726;45.636;11.752;2023-11-21T05:04:26;7.60;99.90
78054;DHT22;67726;45.636;11.752;2023-11-21T05:06:51;7.40;99.90
78054;DHT22;67726;45.636;11.752;2023-11-21T05:09:17;7.60;99.90
78054;DHT22;67726;45.636;11.752;2023-11-21T05:11:43;7.40;99.90
78054;DHT22;67726;45.636;11.752;2023-11-21T05:14:08;7.60;99.90
78054;DHT22;67726;45.636;11.752;2023-11-21T05:16:34;7.50;99.90
78054;DHT22;67726;45.636;11.752;2023-11-21T05:19:01;7.60;99.90
78054;DHT22;67726;45.636;11.752;2023-11-21T05:21:27;7.60;99.90
78054;DHT22;67726;45.636;11.752;2023-11-21T05:23:55;7.40;99.80
78054;DHT22;67726;45.636;11.752;2023-11-21T05:26:20;7.50;99.90
78054;DHT22;67726;45.636;11.752;2023-11-21T05:28:46;7.50;99.90
78054;DHT22;67726;45.636;11.752;2023-11-21T05:31:11;7.60;99.90
78054;DHT22;67726;45.636;11.752;2023-11-21T05:33:38;7.60;99.90
78054;DHT22;67726;45.636;11.752;2023-11-21T05:36:03;7.60;98.80
78054;DHT22;67726;45.636;11.752;2023-11-21T05:38:29;7.60;97.10
78054;DHT22;67726;45.636;11.752;2023-11-21T05:40:55;8.00;97.90
78054;DHT22;67726;45.636;11.752;2023-11-21T05:43:21;8.10;98.40
78054;DHT22;67726;45.636;11.752;2023-11-21T05:45:47;8.20;98.60
78054;DHT22;67726;45.636;11.752;2023-11-21T05:48:12;8.30;98.80
78054;DHT22;67726;45.636;11.752;2023-11-21T05:50:38;8.50;95.70
78054;DHT22;67726;45.636;11.752;2023-11-21T05:53:04;8.60;97.10
78054;DHT22;67726;45.636;11.752;2023-11-21T05:55:30;8.50;96.00
78054;DHT22;67726;45.636;11.752;2023-11-21T05:57:56;8.60;95.10
78054;DHT22;67726;45.636;11.752;2023-11-21T06:00:22;8.60;95.20
78054;DHT22;67726;45.636;11.752;2023-11-21T06:02:49;8.70;96.20
78054;DHT22;67726;45.636;11.752;2023-11-21T06:05:24;8.80;96.60
78054;DHT22;67726;45.636;11.752;2023-11-21T06:07:51;8.70;97.30
78054;DHT22;67726;45.636;11.752;2023-11-21T06:10:20;8.70;97.70
78054;DHT22;67726;45.636;11.752;2023-11-21T06:12:46;8.70;98.10
78054;DHT22;67726;45.636;11.752;2023-11-21T06:15:12;8.60;96.80
78054;DHT22;67726;45.636;11.752;2023-11-21T06:17:40;8.70;97.50
78054;DHT22;67726;45.636;11.752;2023-11-21T06:20:07;8.70;98.10
78054;DHT22;67726;45.636;11.752;2023-11-21T06:22:40;8.80;98.20
78054;DHT22;67726;45.636;11.752;2023-11-21T06:25:07;8.70;98.40
78054;DHT22;67726;45.636;11.752;2023-11-21T06:27:41;8.70;98.50
78054;DHT22;67726;45.636;11.752;2023-11-21T06:30:07;8.80;97.50
78054;DHT22;67726;45.636;11.752;2023-11-21T06:32:35;8.80;97.20
78054;DHT22;67726;45.636;11.752;2023-11-21T06:35:04;8.80;96.00
78054;DHT22;67726;45.636;11.752;2023-11-21T06:37:31;8.80;96.50
78054;DHT22;67726;45.636;11.752;2023-11-21T06:39:58;8.90;97.20
78054;DHT22;67726;45.636;11.752;2023-11-21T06:42:25;9.00;97.80
78054;DHT22;67726;45.636;11.752;2023-11-21T06:44:51;9.00;97.90
78054;DHT22;67726;45.636;11.752;2023-11-21T06:47:22;9.00;98.30
78054;DHT22;67726;45.636;11.752;2023-11-21T06:49:51;8.90;99.10
78054;DHT22;67726;45.636;11.752;2023-11-21T06:52:17;9.10;99.10
78054;DHT22;67726;45.636;11.752;2023-11-21T06:54:43;9.20;98.20
78054;DHT22;67726;45.636;11.752;2023-11-21T06:57:09;9.20;98.50
78054;DHT22;67726;45.636;11.752;2023-11-21T06:59:35;9.30;98.90
78054;DHT22;67726;45.636;11.752;2023-11-21T07:02:01;9.40;99.00
78054;DHT22;67726;45.636;11.752;2023-11-21T07:04:26;9.50;96.10
78054;DHT22;67726;45.636;11.752;2023-11-21T07:06:55;9.60;97.80
78054;DHT22;67726;45.636;11.752;2023-11-21T07:09:21;9.70;98.50
78054;DHT22;67726;45.636;11.752;2023-11-21T07:11:54;9.80;98.40
78054;DHT22;67726;45.636;11.752;2023-11-21T07:14:20;9.80;98.70
78054;DHT22;67726;45.636;11.752;2023-11-21T07:16:47;9.80;94.90
78054;DHT22;67726;45.636;11.752;2023-11-21T07:19:13;9.90;95.80
78054;DHT22;67726;45.636;11.752;2023-11-21T07:21:39;10.00;96.20
78054;DHT22;67726;45.636;11.752;2023-11-21T07:24:07;10.00;95.30
78054;DHT22;67726;45.636;11.752;2023-11-21T07:26:33;10.00;95.50
78054;DHT22;67726;45.636;11.752;2023-11-21T07:29:02;10.10;95.10
78054;DHT22;67726;45.636;11.752;2023-11-21T07:31:29;10.10;95.40
78054;DHT22;67726;45.636;11.752;2023-11-21T07:33:55;10.30;95.90
78054;DHT22;67726;45.636;11.752;2023-11-21T07:36:23;10.40;96.60
78054;DHT22;67726;45.636;11.752;2023-11-21T07:38:49;10.50;98.20
78054;DHT22;67726;45.636;11.752;2023-11-21T07:41:14;10.50;98.70
78054;DHT22;67726;45.636;11.752;2023-11-21T07:43:43;10.40;95.90
78054;DHT22;67726;45.636;11.752;2023-11-21T07:46:10;10.40;96.20
78054;DHT22;67726;45.636;11.752;2023-11-21T07:48:41;10.40;96.90
78054;DHT22;67726;45.636;11.752;2023-11-21T07:51:11;10.40;97.30
78054;DHT22;67726;45.636;11.752;2023-11-21T07:53:38;10.40;97.20
78054;DHT22;67726;45.636;11.752;2023-11-21T07:56:06;10.30;97.70
78054;DHT22;67726;45.636;11.752;2023-11-21T07:58:33;10.30;98.30
78054;DHT22;67726;45.636;11.752;2023-11-21T08:01:03;10.40;98.50
78054;DHT22;67726;45.636;11.752;2023-11-21T08:03:29;10.40;98.70
78054;DHT22;67726;45.636;11.752;2023-11-21T08:05:58;10.60;98.50
78054;DHT22;67726;45.636;11.752;2023-11-21T08:08:25;10.70;98.00
78054;DHT22;67726;45.636;11.752;2023-11-21T08:10:52;10.60;94.60
78054;DHT22;67726;45.636;11.752;2023-11-21T08:13:27;10.80;94.90
78054;DHT22;67726;45.636;11.752;2023-11-21T08:15:56;10.80;93.90
78054;DHT22;67726;45.636;11.752;2023-11-21T08:18:27;11.00;93.70
78054;DHT22;67726;45.636;11.752;2023-11-21T08:20:52;11.10;92.00
78054;DHT22;67726;45.636;11.752;2023-11-21T08:23:20;11.20;92.20
78054;DHT22;67726;45.636;11.752;2023-11-21T08:25:46;11.30;93.20
78054;DHT22;67726;45.636;11.752;2023-11-21T08:28:12;11.40;94.20
78054;DHT22;67726;45.636;11.752;2023-11-21T08:30:40;11.40;94.20
78054;DHT22;67726;45.636;11.752;2023-11-21T08:33:07;11.60;92.60
78054;DHT22;67726;45.636;11.752;2023-11-21T08:35:34;11.60;89.90
78054;DHT22;67726;45.636;11.752;2023-11-21T08:38:00;11.70;89.60
78054;DHT22;67726;45.636;11.752;2023-11-21T08:40:26;11.80;89.20
78054;DHT22;67726;45.636;11.752;2023-11-21T08:42:51;11.80;89.80
78054;DHT22;67726;45.636;11.752;2023-11-21T08:45:18;11.90;89.10
78054;DHT22;67726;45.636;11.752;2023-11-21T08:47:44;11.80;89.90
78054;DHT22;67726;45.636;11.752;2023-11-21T08:50:11;11.90;89.30
78054;DHT22;67726;45.636;11.752;2023-11-21T08:52:40;11.90;89.50
78054;DHT22;67726;45.636;11.752;2023-11-21T08:55:07;12.00;87.80
78054;DHT22;67726;45.636;11.752;2023-11-21T08:57:39;12.00;88.80
78054;DHT22;67726;45.636;11.752;2023-11-21T09:00:07;12.00;89.70
78054;DHT22;67726;45.636;11.752;2023-11-21T09:02:43;12.20;91.40
78054;DHT22;67726;45.636;11.752;2023-11-21T09:05:13;12.20;92.00
78054;DHT22;67726;45.636;11.752;2023-11-21T09:07:40;12.20;90.10
78054;DHT22;67726;45.636;11.752;2023-11-21T09:10:07;11.90;88.30
78054;DHT22;67726;45.636;11.752;2023-11-21T09:12:36;12.00;89.10
78054;DHT22;67726;45.636;11.752;2023-11-21T09:15:06;12.10;91.80
78054;DHT22;67726;45.636;11.752;2023-11-21T09:17:35;12.10;93.00
78054;DHT22;67726;45.636;11.752;2023-11-21T09:20:01;12.10;92.60
78054;DHT22;67726;45.636;11.752;2023-11-21T09:22:28;12.00;89.80
78054;DHT22;67726;45.636;11.752;2023-11-21T09:24:55;12.00;91.20
78054;DHT22;67726;45.636;11.752;2023-11-21T09:27:23;12.10;90.80
78054;DHT22;67726;45.636;11.752;2023-11-21T09:29:49;12.00;90.10
78054;DHT22;67726;45.636;11.752;2023-11-21T09:32:15;12.00;91.20
78054;DHT22;67726;45.636;11.752;2023-11-21T09:34:41;11.90;90.00
78054;DHT22;67726;45.636;11.752;2023-11-21T09:37:08;12.00;89.30
78054;DHT22;67726;45.636;11.752;2023-11-21T09:39:35;12.00;90.60
78054;DHT22;67726;45.636;11.752;2023-11-21T09:42:36;12.10;91.50
78054;DHT22;67726;45.636;11.752;2023-11-21T09:47:53;12.10;91.40
78054;DHT22;67726;45.636;11.752;2023-11-21T09:50:21;12.10;91.70
78054;DHT22;67726;45.636;11.752;2023-11-21T09:55:44;12.10;91.80
78054;DHT22;67726;45.636;11.752;2023-11-21T09:58:11;12.00;89.80
78054;DHT22;67726;45.636;11.752;2023-11-21T10:00:41;12.00;90.40
78054;DHT22;67726;45.636;11.752;2023-11-21T10:03:08;12.00;90.60
78054;DHT22;67726;45.636;11.752;2023-11-21T10:05:35;12.00;91.10
78054;DHT22;67726;45.636;11.752;2023-11-21T10:08:01;11.90;91.90
78054;DHT22;67726;45.636;11.752;2023-11-21T10:10:27;12.00;91.70
78054;DHT22;67726;45.636;11.752;2023-11-21T10:12:56;11.90;91.10
78054;DHT22;67726;45.636;11.752;2023-11-21T10:15:23;11.90;89.70
78054;DHT22;67726;45.636;11.752;2023-11-21T10:17:50;12.00;90.10
78054;DHT22;67726;45.636;11.752;2023-11-21T10:20:22;12.00;90.50
78054;DHT22;67726;45.636;11.752;2023-11-21T10:22:50;12.00;91.90
78054;DHT22;67726;45.636;11.752;2023-11-21T10:25:15;12.00;91.80
78054;DHT22;67726;45.636;11.752;2023-11-21T10:27:42;12.00;92.00
78054;DHT22;67726;45.636;11.752;2023-11-21T10:30:09;12.20;93.70
78054;DHT22;67726;45.636;11.752;2023-11-21T10:32:41;12.10;93.30
78054;DHT22;67726;45.636;11.752;2023-11-21T10:35:08;12.10;93.50
78054;DHT22;67726;45.636;11.752;2023-11-21T10:37:39;12.30;94.10
78054;DHT22;67726;45.636;11.752;2023-11-21T10:40:11;12.30;95.20
78054;DHT22;67726;45.636;11.752;2023-11-21T10:42:40;12.40;95.80
78054;DHT22;67726;45.636;11.752;2023-11-21T10:45:09;12.50;96.30
78054;DHT22;67726;45.636;11.752;2023-11-21T10:47:42;12.60;96.10
78054;DHT22;67726;45.636;11.752;2023-11-21T10:50:08;12.60;94.70
78054;DHT22;67726;45.636;11.752;2023-11-21T10:52:42;12.70;93.80
78054;DHT22;67726;45.636;11.752;2023-11-21T10:55:20;12.80;94.70
78054;DHT22;67726;45.636;11.752;2023-11-21T10:57:49;13.10;94.70
78054;DHT22;67726;45.636;11.752;2023-11-21T11:00:17;13.20;91.90
78054;DHT22;67726;45.636;11.752;2023-11-21T11:02:48;13.40;91.40
78054;DHT22;67726;45.636;11.752;2023-11-21T11:05:20;13.60;92.00
78054;DHT22;67726;45.636;11.752;2023-11-21T11:08:04;13.80;93.00
78054;DHT22;67726;45.636;11.752;2023-11-21T11:10:30;14.00;95.30
78054;DHT22;67726;45.636;11.752;2023-11-21T11:12:57;14.30;94.30
78054;DHT22;67726;45.636;11.752;2023-11-21T11:15:26;14.60;91.40
78054;DHT22;67726;45.636;11.752;2023-11-21T11:17:53;14.90;93.40
78054;DHT22;67726;45.636;11.752;2023-11-21T11:20:24;15.20;90.40
78054;DHT22;67726;45.636;11.752;2023-11-21T11:32:19;15.90;86.50
78054;DHT22;67726;45.636;11.752;2023-11-21T11:37:00;16.10;89.70
78054;DHT22;67726;45.636;11.752;2023-11-21T11:41:58;16.20;89.10
78054;DHT22;67726;45.636;11.752;2023-11-21T11:44:47;16.20;88.70
78054;DHT22;67726;45.636;11.752;2023-11-21T11:47:27;16.10;84.60
78054;DHT22;67726;45.636;11.752;2023-11-21T11:50:12;16.10;87.30
78054;DHT22;67726;45.636;11.752;2023-11-21T11:52:48;16.10;87.20
78054;DHT22;67726;45.636;11.752;2023-11-21T11:55:17;16.00;87.50
78054;DHT22;67726;45.636;11.752;2023-11-21T11:57:45;16.10;91.90
78054;DHT22;67726;45.636;11.752;2023-11-21T12:00:16;15.90;83.90
78054;DHT22;67726;45.636;11.752;2023-11-21T12:02:48;15.90;85.90
78054;DHT22;67726;45.636;11.752;2023-11-21T12:05:16;15.80;83.50
78054;DHT22;67726;45.636;11.752;2023-11-21T12:07:48;15.90;87.60
78054;DHT22;67726;45.636;11.752;2023-11-21T12:10:18;15.90;87.40
78054;DHT22;67726;45.636;11.752;2023-11-21T12:12:48;15.80;87.90
78054;DHT22;67726;45.636;11.752;2023-11-21T12:15:15;15.80;86.30
78054;DHT22;67726;45.636;11.752;2023-11-21T12:17:42;15.80;84.20
78054;DHT22;67726;45.636;11.752;2023-11-21T12:20:09;15.70;83.90
78054;DHT22;67726;45.636;11.752;2023-11-21T12:22:46;15.70;84.90
78054;DHT22;67726;45.636;11.752;2023-11-21T12:25:19;15.60;85.80
78054;DHT22;67726;45.636;11.752;2023-11-21T12:27:50;15.50;83.70
78054;DHT22;67726;45.636;11.752;2023-11-21T12:30:18;15.40;87.30
78054;DHT22;67726;45.636;11.752;2023-11-21T12:32:45;15.10;84.00
78054;DHT22;67726;45.636;11.752;2023-11-21T12:35:13;15.10;87.70
78054;DHT22;67726;45.636;11.752;2023-11-21T12:37:40;15.00;92.40
78054;DHT22;67726;45.636;11.752;2023-11-21T12:40:08;14.70;86.90
78054;DHT22;67726;45.636;11.752;2023-11-21T12:42:47;14.70;86.50
78054;DHT22;67726;45.636;11.752;2023-11-21T12:47:47;14.50;86.40
78054;DHT22;67726;45.636;11.752;2023-11-21T12:50:14;14.40;88.80
78054;DHT22;67726;45.636;11.752;2023-11-21T12:52:46;14.40;88.90
78054;DHT22;67726;45.636;11.752;2023-11-21T12:55:19;14.30;90.70
78054;DHT22;67726;45.636;11.752;2023-11-21T12:57:49;14.30;92.40
78054;DHT22;67726;45.636;11.752;2023-11-21T13:00:27;14.30;92.80
78054;DHT22;67726;45.636;11.752;2023-11-21T13:02:54;14.40;92.30
78054;DHT22;67726;45.636;11.752;2023-11-21T13:05:34;14.30;89.70
78054;DHT22;67726;45.636;11.752;2023-11-21T13:08:02;14.20;90.90
78054;DHT22;67726;45.636;11.752;2023-11-21T13:10:30;14.10;92.10
78054;DHT22;67726;45.636;11.752;2023-11-21T13:12:59;14.10;90.30
78054;DHT22;67726;45.636;11.752;2023-11-21T13:15:28;14.10;91.40
78054;DHT22;67726;45.636;11.752;2023-11-21T13:17:57;14.10;92.40
78054;DHT22;67726;45.636;11.752;2023-11-21T13:20:26;14.00;91.00
78054;DHT22;67726;45.636;11.752;2023-11-21T13:22:53;14.00;91.60
78054;DHT22;67726;45.636;11.752;2023-11-21T13:25:26;13.90;92.80
78054;DHT22;67726;45.636;11.752;2023-11-21T13:27:57;13.90;94.50
78054;DHT22;67726;45.636;11.752;2023-11-21T13:30:24;13.80;95.70
78054;DHT22;67726;45.636;11.752;2023-11-21T13:33:02;13.90;96.60
78054;DHT22;67726;45.636;11.752;2023-11-21T13:35:31;13.70;96.40
78054;DHT22;67726;45.636;11.752;2023-11-21T13:38:07;13.80;97.30
78054;DHT22;67726;45.636;11.752;2023-11-21T13:40:33;13.60;96.60
78054;DHT22;67726;45.636;11.752;2023-11-21T13:43:10;13.50;96.90
78054;DHT22;67726;45.636;11.752;2023-11-21T13:45:37;13.50;97.60
78054;DHT22;67726;45.636;11.752;2023-11-21T13:48:05;13.40;98.40
78054;DHT22;67726;45.636;11.752;2023-11-21T13:50:41;13.40;98.60
78054;DHT22;67726;45.636;11.752;2023-11-21T13:53:20;13.40;98.50
78054;DHT22;67726;45.636;11.752;2023-11-21T13:55:53;13.30;99.00
78054;DHT22;67726;45.636;11.752;2023-11-21T13:58:20;13.30;99.10
78054;DHT22;67726;45.636;11.752;2023-11-21T14:01:00;13.30;99.30
78054;DHT22;67726;45.636;11.752;2023-11-21T14:03:27;13.30;99.60
78054;DHT22;67726;45.636;11.752;2023-11-21T14:06:13;13.30;99.60
78054;DHT22;67726;45.636;11.752;2023-11-21T14:08:46;13.20;99.40
78054;DHT22;67726;45.636;11.752;2023-11-21T14:11:12;13.20;99.70
78054;DHT22;67726;45.636;11.752;2023-11-21T14:13:43;13.20;99.00
78054;DHT22;67726;45.636;11.752;2023-11-21T14:16:12;13.20;98.90
78054;DHT22;67726;45.636;11.752;2023-11-21T14:18:39;13.20;99.00
78054;DHT22;67726;45.636;11.752;2023-11-21T14:21:18;13.20;99.70
78054;DHT22;67726;45.636;11.752;2023-11-21T14:23:44;13.40;99.00
78054;DHT22;67726;45.636;11.752;2023-11-21T14:26:11;13.30;99.50
78054;DHT22;67726;45.636;11.752;2023-11-21T14:28:40;13.30;98.90
78054;DHT22;67726;45.636;11.752;2023-11-21T14:31:07;13.30;97.80
78054;DHT22;67726;45.636;11.752;2023-11-21T14:33:33;13.30;97.70
78054;DHT22;67726;45.636;11.752;2023-11-21T14:35:59;13.30;97.70
78054;DHT22;67726;45.636;11.752;2023-11-21T14:38:24;13.30;98.50
78054;DHT22;67726;45.636;11.752;2023-11-21T14:40:50;13.30;98.30
78054;DHT22;67726;45.636;11.752;2023-11-21T14:43:16;13.30;98.00
78054;DHT22;67726;45.636;11.752;2023-11-21T14:45:43;13.40;98.80
78054;DHT22;67726;45.636;11.752;2023-11-21T14:48:09;13.30;98.50
78054;DHT22;67726;45.636;11.752;2023-11-21T14:50:42;13.40;98.00
78054;DHT22;67726;45.636;11.752;2023-11-21T14:53:08;13.40;98.10
78054;DHT22;67726;45.636;11.752;2023-11-21T14:55:35;13.50;97.60
78054;DHT22;67726;45.636;11.752;2023-11-21T14:58:03;13.50;97.50
78054;DHT22;67726;45.636;11.752;2023-11-21T15:00:29;13.50;98.00
78054;DHT22;67726;45.636;11.752;2023-11-21T15:02:58;13.50;97.80
78054;DHT22;67726;45.636;11.752;2023-11-21T15:05:23;13.50;95.90
78054;DHT22;67726;45.636;11.752;2023-11-21T15:07:50;13.50;96.10
78054;DHT22;67726;45.636;11.752;2023-11-21T15:10:21;13.50;96.60
78054;DHT22;67726;45.636;11.752;2023-11-21T15:12:54;13.50;96.10
78054;DHT22;67726;45.636;11.752;2023-11-21T15:15:20;13.40;95.60
78054;DHT22;67726;45.636;11.752;2023-11-21T15:17:46;13.50;99.20
78054;DHT22;67726;45.636;11.752;2023-11-21T15:20:13;13.50;97.00
78054;DHT22;67726;45.636;11.752;2023-11-21T15:22:45;13.40;98.40
78054;DHT22;67726;45.636;11.752;2023-11-21T15:25:10;13.40;97.90
78054;DHT22;67726;45.636;11.752;2023-11-21T15:27:38;13.40;98.20
78054;DHT22;67726;45.636;11.752;2023-11-21T15:30:05;13.40;96.70
78054;DHT22;67726;45.636;11.752;2023-11-21T15:32:31;13.30;96.90
78054;DHT22;67726;45.636;11.752;2023-11-21T15:34:56;13.40;97.10
78054;DHT22;67726;45.636;11.752;2023-11-21T15:37:22;13.30;95.80
78054;DHT22;67726;45.636;11.752;2023-11-21T15:39:48;13.30;95.40
78054;DHT22;67726;45.636;11.752;2023-11-21T15:42:14;13.30;95.50
78054;DHT22;67726;45.636;11.752;2023-11-21T15:44:39;13.30;95.00
78054;DHT22;67726;45.636;11.752;2023-11-21T15:47:05;13.30;96.40
78054;DHT22;67726;45.636;11.752;2023-11-21T15:49:34;13.20;97.10